sensor_id;sensor_type;location;lat;lon;timestamp;P1;durP1;ratioP1;P2;durP2;ratioP2
61638;SDS011;47544;52.484;4.658;2023-02-27T00:00:08;11.35;;;5.22;;
61638;SDS011;47544;52.484;4.658;2023-02-27T00:00:24;10.68;;;5.30;;
61638;SDS011;47544;52.484;4.658;2023-02-27T00:00:35;11.25;;;5.70;;
61638;SDS011;47544;52.484;4.658;2023-02-27T00:00:47;11.45;;;5.72;;
61638;SDS011;47544;52.484;4.658;2023-02-27T00:00:58;12.10;;;5.63;;
61638;SDS011;47544;52.484;4.658;2023-02-27T00:01:09;12.40;;;5.70;;
61638;SDS011;47544;52.484;4.658;2023-02-27T00:01:20;12.70;;;5.90;;
61638;SDS011;47544;52.484;4.658;2023-02-27T00:01:32;11.98;;;5.82;;
61638;SDS011;47544;52.484;4.658;2023-02-27T00:01:43;11.82;;;5.90;;
61638;SDS011;47544;52.484;4.658;2023-02-27T00:01:54;11.68;;;5.80;;
61638;SDS011;47544;52.484;4.658;2023-02-27T00:02:05;13.10;;;5.75;;
61638;SDS011;47544;52.484;4.658;2023-02-27T00:02:17;14.13;;;5.80;;
61638;SDS011;47544;52.484;4.658;2023-02-27T00:02:28;13.00;;;5.65;;
61638;SDS011;47544;52.484;4.658;2023-02-27T00:02:40;12.18;;;5.38;;
61638;SDS011;47544;52.484;4.658;2023-02-27T00:02:51;11.38;;;5.20;;
61638;SDS011;47544;52.484;4.658;2023-02-27T00:03:03;10.63;;;5.30;;
61638;SDS011;47544;52.484;4.658;2023-02-27T00:03:13;11.40;;;5.40;;
61638;SDS011;47544;52.484;4.658;2023-02-27T00:03:25;11.55;;;5.43;;
61638;SDS011;47544;52.484;4.658;2023-02-27T00:03:36;12.48;;;5.63;;
61638;SDS011;47544;52.484;4.658;2023-02-27T00:03:50;11.50;;;5.43;;
61638;SDS011;47544;52.484;4.658;2023-02-27T00:04:01;10.35;;;5.15;;
61638;SDS011;47544;52.484;4.658;2023-02-27T00:04:13;9.23;;;4.93;;
61638;SDS011;47544;52.484;4.658;2023-02-27T00:04:24;12.38;;;5.35;;
61638;SDS011;47544;52.484;4.658;2023-02-27T00:04:35;13.27;;;5.55;;
61638;SDS011;47544;52.484;4.658;2023-02-27T00:04:46;12.75;;;5.40;;
61638;SDS011;47544;52.484;4.658;2023-02-27T00:04:57;11.65;;;5.15;;
61638;SDS011;47544;52.484;4.658;2023-02-27T00:05:08;12.13;;;5.13;;
61638;SDS011;47544;52.484;4.658;2023-02-27T00:05:19;13.20;;;5.15;;
61638;SDS011;47544;52.484;4.658;2023-02-27T00:05:33;12.32;;;5.07;;
61638;SDS011;47544;52.484;4.658;2023-02-27T00:05:44;11.52;;;5.07;;
61638;SDS011;47544;52.484;4.658;2023-02-27T00:05:55;10.80;;;5.35;;
61638;SDS011;47544;52.484;4.658;2023-02-27T00:06:06;11.05;;;5.50;;
61638;SDS011;47544;52.484;4.658;2023-02-27T00:06:17;12.17;;;5.53;;
61638;SDS011;47544;52.484;4.658;2023-02-27T00:06:28;13.00;;;5.53;;
61638;SDS011;47544;52.484;4.658;2023-02-27T00:06:39;12.73;;;5.47;;
61638;SDS011;47544;52.484;4.658;2023-02-27T00:06:51;11.93;;;5.50;;
61638;SDS011;47544;52.484;4.658;2023-02-27T00:07:02;12.45;;;5.50;;
61638;SDS011;47544;52.484;4.658;2023-02-27T00:07:13;14.55;;;5.65;;
61638;SDS011;47544;52.484;4.658;2023-02-27T00:07:24;14.77;;;5.55;;
61638;SDS011;47544;52.484;4.658;2023-02-27T00:07:35;13.07;;;5.70;;
61638;SDS011;47544;52.484;4.658;2023-02-27T00:07:46;12.07;;;5.50;;
61638;SDS011;47544;52.484;4.658;2023-02-27T00:07:57;12.85;;;5.85;;
61638;SDS011;47544;52.484;4.658;2023-02-27T00:08:09;13.02;;;5.38;;
61638;SDS011;47544;52.484;4.658;2023-02-27T00:08:20;10.88;;;5.28;;
61638;SDS011;47544;52.484;4.658;2023-02-27T00:08:31;11.13;;;5.18;;
61638;SDS011;47544;52.484;4.658;2023-02-27T00:08:42;11.50;;;5.28;;
61638;SDS011;47544;52.484;4.658;2023-02-27T00:08:53;12.20;;;5.07;;
61638;SDS011;47544;52.484;4.658;2023-02-27T00:09:04;10.65;;;5.05;;
61638;SDS011;47544;52.484;4.658;2023-02-27T00:09:15;11.27;;;5.40;;
61638;SDS011;47544;52.484;4.658;2023-02-27T00:09:26;10.95;;;5.28;;
61638;SDS011;47544;52.484;4.658;2023-02-27T00:09:37;11.18;;;5.18;;
61638;SDS011;47544;52.484;4.658;2023-02-27T00:09:51;11.30;;;5.07;;
61638;SDS011;47544;52.484;4.658;2023-02-27T00:10:02;11.43;;;5.05;;
61638;SDS011;47544;52.484;4.658;2023-02-27T00:10:14;10.13;;;4.90;;
61638;SDS011;47544;52.484;4.658;2023-02-27T00:10:25;11.05;;;5.22;;
61638;SDS011;47544;52.484;4.658;2023-02-27T00:10:36;11.98;;;5.30;;
61638;SDS011;47544;52.484;4.658;2023-02-27T00:10:49;12.38;;;5.50;;
61638;SDS011;47544;52.484;4.658;2023-02-27T00:11:01;10.18;;;5.20;;
61638;SDS011;47544;52.484;4.658;2023-02-27T00:11:12;10.73;;;5.10;;
61638;SDS011;47544;52.484;4.658;2023-02-27T00:11:23;11.27;;;5.00;;
61638;SDS011;47544;52.484;4.658;2023-02-27T00:11:34;13.60;;;5.20;;
61638;SDS011;47544;52.484;4.658;2023-02-27T00:11:44;14.07;;;5.22;;
61638;SDS011;47544;52.484;4.658;2023-02-27T00:11:55;13.55;;;5.18;;
61638;SDS011;47544;52.484;4.658;2023-02-27T00:12:06;11.27;;;4.85;;
61638;SDS011;47544;52.484;4.658;2023-02-27T00:12:18;10.20;;;4.97;;
61638;SDS011;47544;52.484;4.658;2023-02-27T00:12:29;10.20;;;4.97;;
61638;SDS011;47544;52.484;4.658;2023-02-27T00:12:43;11.65;;;5.00;;
61638;SDS011;47544;52.484;4.658;2023-02-27T00:12:54;11.90;;;5.22;;
61638;SDS011;47544;52.484;4.658;2023-02-27T00:13:05;11.90;;;5.40;;
61638;SDS011;47544;52.484;4.658;2023-02-27T00:13:17;11.43;;;5.28;;
61638;SDS011;47544;52.484;4.658;2023-02-27T00:13:28;10.48;;;5.13;;
61638;SDS011;47544;52.484;4.658;2023-02-27T00:13:39;11.27;;;5.07;;
61638;SDS011;47544;52.484;4.658;2023-02-27T00:13:50;14.88;;;5.30;;
61638;SDS011;47544;52.484;4.658;2023-02-27T00:14:02;15.95;;;5.10;;
61638;SDS011;47544;52.484;4.658;2023-02-27T00:14:13;12.65;;;5.00;;
61638;SDS011;47544;52.484;4.658;2023-02-27T00:14:24;12.00;;;5.13;;
61638;SDS011;47544;52.484;4.658;2023-02-27T00:14:36;12.10;;;5.45;;
61638;SDS011;47544;52.484;4.658;2023-02-27T00:14:47;11.38;;;5.32;;
61638;SDS011;47544;52.484;4.658;2023-02-27T00:14:58;8.90;;;4.82;;
61638;SDS011;47544;52.484;4.658;2023-02-27T00:15:13;10.35;;;4.72;;
61638;SDS011;47544;52.484;4.658;2023-02-27T00:15:25;11.43;;;5.00;;
61638;SDS011;47544;52.484;4.658;2023-02-27T00:15:36;11.43;;;5.10;;
61638;SDS011;47544;52.484;4.658;2023-02-27T00:15:47;10.65;;;4.95;;
61638;SDS011;47544;52.484;4.658;2023-02-27T00:16:01;9.85;;;4.70;;
61638;SDS011;47544;52.484;4.658;2023-02-27T00:16:12;11.13;;;4.72;;
61638;SDS011;47544;52.484;4.658;2023-02-27T00:16:23;11.50;;;4.80;;
61638;SDS011;47544;52.484;4.658;2023-02-27T00:16:35;11.95;;;4.97;;
61638;SDS011;47544;52.484;4.658;2023-02-27T00:16:46;10.60;;;4.80;;
61638;SDS011;47544;52.484;4.658;2023-02-27T00:16:57;10.05;;;4.75;;
61638;SDS011;47544;52.484;4.658;2023-02-27T00:17:08;10.23;;;4.70;;
61638;SDS011;47544;52.484;4.658;2023-02-27T00:17:20;10.93;;;4.78;;
61638;SDS011;47544;52.484;4.658;2023-02-27T00:17:37;10.35;;;4.90;;
61638;SDS011;47544;52.484;4.658;2023-02-27T00:17:49;10.07;;;4.90;;
61638;SDS011;47544;52.484;4.658;2023-02-27T00:18:00;9.93;;;4.85;;
61638;SDS011;47544;52.484;4.658;2023-02-27T00:18:11;12.32;;;5.00;;
61638;SDS011;47544;52.484;4.658;2023-02-27T00:18:22;12.43;;;4.88;;
61638;SDS011;47544;52.484;4.658;2023-02-27T00:18:33;11.80;;;4.93;;
61638;SDS011;47544;52.484;4.658;2023-02-27T00:18:44;10.73;;;4.70;;
61638;SDS011;47544;52.484;4.658;2023-02-27T00:18:55;10.23;;;4.43;;
61638;SDS011;47544;52.484;4.658;2023-02-27T00:19:10;12.07;;;4.88;;
61638;SDS011;47544;52.484;4.658;2023-02-27T00:19:22;12.68;;;5.22;;
61638;SDS011;47544;52.484;4.658;2023-02-27T00:19:33;12.82;;;5.40;;
61638;SDS011;47544;52.484;4.658;2023-02-27T00:19:44;12.50;;;5.47;;
61638;SDS011;47544;52.484;4.658;2023-02-27T00:19:55;12.82;;;5.43;;
61638;SDS011;47544;52.484;4.658;2023-02-27T00:20:06;13.35;;;5.30;;
61638;SDS011;47544;52.484;4.658;2023-02-27T00:20:20;13.88;;;4.97;;
61638;SDS011;47544;52.484;4.658;2023-02-27T00:20:32;14.02;;;4.70;;
61638;SDS011;47544;52.484;4.658;2023-02-27T00:20:47;12.82;;;4.85;;
61638;SDS011;47544;52.484;4.658;2023-02-27T00:20:58;13.23;;;4.95;;
61638;SDS011;47544;52.484;4.658;2023-02-27T00:21:09;12.45;;;4.68;;
61638;SDS011;47544;52.484;4.658;2023-02-27T00:21:20;10.35;;;4.40;;
61638;SDS011;47544;52.484;4.658;2023-02-27T00:21:31;10.98;;;4.30;;
61638;SDS011;47544;52.484;4.658;2023-02-27T00:21:42;11.73;;;4.32;;
61638;SDS011;47544;52.484;4.658;2023-02-27T00:21:54;13.07;;;4.53;;
61638;SDS011;47544;52.484;4.658;2023-02-27T00:22:05;12.93;;;4.53;;
61638;SDS011;47544;52.484;4.658;2023-02-27T00:22:16;12.43;;;4.70;;
61638;SDS011;47544;52.484;4.658;2023-02-27T00:22:27;11.32;;;4.55;;
61638;SDS011;47544;52.484;4.658;2023-02-27T00:22:39;10.40;;;4.50;;
61638;SDS011;47544;52.484;4.658;2023-02-27T00:22:50;10.68;;;4.57;;
61638;SDS011;47544;52.484;4.658;2023-02-27T00:23:01;10.48;;;4.65;;
61638;SDS011;47544;52.484;4.658;2023-02-27T00:23:14;11.50;;;4.68;;
61638;SDS011;47544;52.484;4.658;2023-02-27T00:23:25;13.13;;;4.80;;
61638;SDS011;47544;52.484;4.658;2023-02-27T00:23:37;12.35;;;4.80;;
61638;SDS011;47544;52.484;4.658;2023-02-27T00:23:48;11.55;;;4.70;;
61638;SDS011;47544;52.484;4.658;2023-02-27T00:24:01;10.62;;;4.60;;
61638;SDS011;47544;52.484;4.658;2023-02-27T00:24:12;11.55;;;4.57;;
61638;SDS011;47544;52.484;4.658;2023-02-27T00:24:23;12.48;;;4.63;;
61638;SDS011;47544;52.484;4.658;2023-02-27T00:24:34;13.23;;;4.47;;
61638;SDS011;47544;52.484;4.658;2023-02-27T00:24:46;11.73;;;4.22;;
61638;SDS011;47544;52.484;4.658;2023-02-27T00:24:57;10.20;;;4.20;;
61638;SDS011;47544;52.484;4.658;2023-02-27T00:25:08;11.43;;;4.43;;
61638;SDS011;47544;52.484;4.658;2023-02-27T00:25:20;11.70;;;4.50;;
61638;SDS011;47544;52.484;4.658;2023-02-27T00:25:31;12.07;;;4.43;;
61638;SDS011;47544;52.484;4.658;2023-02-27T00:25:43;11.27;;;4.43;;
61638;SDS011;47544;52.484;4.658;2023-02-27T00:25:56;11.07;;;4.50;;
61638;SDS011;47544;52.484;4.658;2023-02-27T00:26:10;12.20;;;4.50;;
61638;SDS011;47544;52.484;4.658;2023-02-27T00:26:21;11.93;;;4.30;;
61638;SDS011;47544;52.484;4.658;2023-02-27T00:26:32;9.60;;;4.03;;
61638;SDS011;47544;52.484;4.658;2023-02-27T00:26:43;10.32;;;4.35;;
61638;SDS011;47544;52.484;4.658;2023-02-27T00:26:54;11.15;;;4.30;;
61638;SDS011;47544;52.484;4.658;2023-02-27T00:27:05;11.95;;;4.43;;
61638;SDS011;47544;52.484;4.658;2023-02-27T00:27:16;12.32;;;4.20;;
61638;SDS011;47544;52.484;4.658;2023-02-27T00:27:27;12.45;;;4.22;;
61638;SDS011;47544;52.484;4.658;2023-02-27T00:27:39;10.30;;;4.00;;
61638;SDS011;47544;52.484;4.658;2023-02-27T00:27:51;11.18;;;4.35;;
61638;SDS011;47544;52.484;4.658;2023-02-27T00:28:03;10.20;;;4.30;;
61638;SDS011;47544;52.484;4.658;2023-02-27T00:28:14;10.50;;;4.43;;
61638;SDS011;47544;52.484;4.658;2023-02-27T00:28:25;10.40;;;4.65;;
61638;SDS011;47544;52.484;4.658;2023-02-27T00:28:36;11.02;;;4.65;;
61638;SDS011;47544;52.484;4.658;2023-02-27T00:28:47;10.88;;;4.60;;
61638;SDS011;47544;52.484;4.658;2023-02-27T00:28:58;10.90;;;4.00;;
61638;SDS011;47544;52.484;4.658;2023-02-27T00:29:10;10.82;;;4.10;;
61638;SDS011;47544;52.484;4.658;2023-02-27T00:29:21;10.35;;;4.00;;
61638;SDS011;47544;52.484;4.658;2023-02-27T00:29:32;11.07;;;4.32;;
61638;SDS011;47544;52.484;4.658;2023-02-27T00:29:43;12.88;;;4.60;;
61638;SDS011;47544;52.484;4.658;2023-02-27T00:29:54;12.68;;;4.53;;
61638;SDS011;47544;52.484;4.658;2023-02-27T00:30:06;12.40;;;4.40;;
61638;SDS011;47544;52.484;4.658;2023-02-27T00:30:17;10.02;;;4.18;;
61638;SDS011;47544;52.484;4.658;2023-02-27T00:30:28;9.27;;;4.28;;
61638;SDS011;47544;52.484;4.658;2023-02-27T00:30:39;10.35;;;4.35;;
61638;SDS011;47544;52.484;4.658;2023-02-27T00:30:51;10.85;;;4.57;;
61638;SDS011;47544;52.484;4.658;2023-02-27T00:31:02;11.18;;;4.50;;
61638;SDS011;47544;52.484;4.658;2023-02-27T00:31:14;11.30;;;4.40;;
61638;SDS011;47544;52.484;4.658;2023-02-27T00:31:25;11.98;;;4.40;;
61638;SDS011;47544;52.484;4.658;2023-02-27T00:31:36;12.23;;;4.60;;
61638;SDS011;47544;52.484;4.658;2023-02-27T00:31:47;11.15;;;4.47;;
61638;SDS011;47544;52.484;4.658;2023-02-27T00:31:57;11.02;;;4.38;;
61638;SDS011;47544;52.484;4.658;2023-02-27T00:32:09;11.63;;;4.38;;
61638;SDS011;47544;52.484;4.658;2023-02-27T00:32:21;11.23;;;4.15;;
61638;SDS011;47544;52.484;4.658;2023-02-27T00:32:32;12.25;;;3.90;;
61638;SDS011;47544;52.484;4.658;2023-02-27T00:32:45;11.77;;;3.88;;
61638;SDS011;47544;52.484;4.658;2023-02-27T00:32:56;11.23;;;4.07;;
61638;SDS011;47544;52.484;4.658;2023-02-27T00:33:08;8.70;;;4.00;;
61638;SDS011;47544;52.484;4.658;2023-02-27T00:33:18;9.05;;;4.25;;
61638;SDS011;47544;52.484;4.658;2023-02-27T00:33:31;9.23;;;4.22;;
61638;SDS011;47544;52.484;4.658;2023-02-27T00:33:42;9.70;;;4.28;;
61638;SDS011;47544;52.484;4.658;2023-02-27T00:33:52;10.40;;;4.32;;
61638;SDS011;47544;52.484;4.658;2023-02-27T00:34:03;10.25;;;4.50;;
61638;SDS011;47544;52.484;4.658;2023-02-27T00:34:14;9.48;;;4.40;;
61638;SDS011;47544;52.484;4.658;2023-02-27T00:34:25;9.52;;;4.18;;
61638;SDS011;47544;52.484;4.658;2023-02-27T00:34:37;10.95;;;3.88;;
61638;SDS011;47544;52.484;4.658;2023-02-27T00:34:49;11.70;;;3.75;;
61638;SDS011;47544;52.484;4.658;2023-02-27T00:35:00;11.88;;;4.15;;
61638;SDS011;47544;52.484;4.658;2023-02-27T00:35:10;11.50;;;4.20;;
61638;SDS011;47544;52.484;4.658;2023-02-27T00:35:22;13.48;;;4.38;;
61638;SDS011;47544;52.484;4.658;2023-02-27T00:35:33;12.82;;;4.34;;
61638;SDS011;47544;52.484;4.658;2023-02-27T00:35:53;12.40;;;4.50;;
61638;SDS011;47544;52.484;4.658;2023-02-27T00:36:05;9.02;;;4.20;;
61638;SDS011;47544;52.484;4.658;2023-02-27T00:36:16;9.50;;;4.13;;
61638;SDS011;47544;52.484;4.658;2023-02-27T00:36:27;11.00;;;4.40;;
61638;SDS011;47544;52.484;4.658;2023-02-27T00:36:38;11.73;;;4.30;;
61638;SDS011;47544;52.484;4.658;2023-02-27T00:36:49;11.48;;;4.20;;
61638;SDS011;47544;52.484;4.658;2023-02-27T00:37:00;12.05;;;4.13;;
61638;SDS011;47544;52.484;4.658;2023-02-27T00:37:11;11.10;;;4.30;;
61638;SDS011;47544;52.484;4.658;2023-02-27T00:37:22;11.25;;;4.22;;
61638;SDS011;47544;52.484;4.658;2023-02-27T00:37:36;11.05;;;4.07;;
61638;SDS011;47544;52.484;4.658;2023-02-27T00:37:48;12.23;;;3.97;;
61638;SDS011;47544;52.484;4.658;2023-02-27T00:37:59;12.10;;;4.00;;
61638;SDS011;47544;52.484;4.658;2023-02-27T00:38:10;11.55;;;3.90;;
61638;SDS011;47544;52.484;4.658;2023-02-27T00:38:21;11.45;;;4.10;;
61638;SDS011;47544;52.484;4.658;2023-02-27T00:38:32;11.75;;;4.25;;
61638;SDS011;47544;52.484;4.658;2023-02-27T00:38:43;11.93;;;4.13;;
61638;SDS011;47544;52.484;4.658;2023-02-27T00:38:55;10.43;;;3.83;;
61638;SDS011;47544;52.484;4.658;2023-02-27T00:39:08;9.75;;;3.50;;
61638;SDS011;47544;52.484;4.658;2023-02-27T00:39:19;9.75;;;3.40;;
61638;SDS011;47544;52.484;4.658;2023-02-27T00:39:30;10.65;;;3.60;;
61638;SDS011;47544;52.484;4.658;2023-02-27T00:39:41;12.75;;;3.88;;
61638;SDS011;47544;52.484;4.658;2023-02-27T00:39:52;11.10;;;3.90;;
61638;SDS011;47544;52.484;4.658;2023-02-27T00:40:03;11.20;;;4.05;;
61638;SDS011;47544;52.484;4.658;2023-02-27T00:40:15;9.30;;;3.92;;
61638;SDS011;47544;52.484;4.658;2023-02-27T00:40:27;9.45;;;3.80;;
61638;SDS011;47544;52.484;4.658;2023-02-27T00:40:38;9.88;;;3.80;;
61638;SDS011;47544;52.484;4.658;2023-02-27T00:40:49;11.07;;;3.78;;
61638;SDS011;47544;52.484;4.658;2023-02-27T00:41:03;10.43;;;3.70;;
61638;SDS011;47544;52.484;4.658;2023-02-27T00:41:14;11.43;;;3.50;;
61638;SDS011;47544;52.484;4.658;2023-02-27T00:41:25;11.30;;;3.55;;
61638;SDS011;47544;52.484;4.658;2023-02-27T00:41:37;10.90;;;3.83;;
61638;SDS011;47544;52.484;4.658;2023-02-27T00:41:49;11.57;;;3.92;;
61638;SDS011;47544;52.484;4.658;2023-02-27T00:42:00;10.30;;;3.57;;
61638;SDS011;47544;52.484;4.658;2023-02-27T00:42:14;10.15;;;3.50;;
61638;SDS011;47544;52.484;4.658;2023-02-27T00:42:25;10.77;;;3.92;;
61638;SDS011;47544;52.484;4.658;2023-02-27T00:42:37;11.00;;;4.00;;
61638;SDS011;47544;52.484;4.658;2023-02-27T00:42:48;9.77;;;3.70;;
61638;SDS011;47544;52.484;4.658;2023-02-27T00:43:00;8.55;;;3.40;;
61638;SDS011;47544;52.484;4.658;2023-02-27T00:43:11;6.93;;;3.20;;
61638;SDS011;47544;52.484;4.658;2023-02-27T00:43:22;7.50;;;3.10;;
61638;SDS011;47544;52.484;4.658;2023-02-27T00:43:33;8.50;;;3.10;;
61638;SDS011;47544;52.484;4.658;2023-02-27T00:43:45;9.00;;;3.20;;
61638;SDS011;47544;52.484;4.658;2023-02-27T00:43:56;8.82;;;3.20;;
61638;SDS011;47544;52.484;4.658;2023-02-27T00:44:06;7.85;;;3.17;;
61638;SDS011;47544;52.484;4.658;2023-02-27T00:44:18;8.68;;;3.20;;
61638;SDS011;47544;52.484;4.658;2023-02-27T00:44:29;8.80;;;3.25;;
61638;SDS011;47544;52.484;4.658;2023-02-27T00:44:40;8.40;;;3.13;;
61638;SDS011;47544;52.484;4.658;2023-02-27T00:44:51;9.77;;;3.20;;
61638;SDS011;47544;52.484;4.658;2023-02-27T00:45:03;9.32;;;3.42;;
61638;SDS011;47544;52.484;4.658;2023-02-27T00:45:14;9.60;;;3.53;;
61638;SDS011;47544;52.484;4.658;2023-02-27T00:45:25;7.78;;;3.28;;
61638;SDS011;47544;52.484;4.658;2023-02-27T00:45:36;9.50;;;3.30;;
61638;SDS011;47544;52.484;4.658;2023-02-27T00:45:47;10.32;;;3.20;;
61638;SDS011;47544;52.484;4.658;2023-02-27T00:45:59;10.40;;;3.50;;
61638;SDS011;47544;52.484;4.658;2023-02-27T00:46:10;10.23;;;3.60;;
61638;SDS011;47544;52.484;4.658;2023-02-27T00:46:21;10.68;;;3.72;;
61638;SDS011;47544;52.484;4.658;2023-02-27T00:46:32;12.80;;;3.60;;
61638;SDS011;47544;52.484;4.658;2023-02-27T00:46:43;10.80;;;3.20;;
61638;SDS011;47544;52.484;4.658;2023-02-27T00:46:54;10.27;;;3.33;;
61638;SDS011;47544;52.484;4.658;2023-02-27T00:47:05;8.52;;;3.30;;
61638;SDS011;47544;52.484;4.658;2023-02-27T00:47:16;9.13;;;3.40;;
61638;SDS011;47544;52.484;4.658;2023-02-27T00:47:30;10.10;;;3.50;;
61638;SDS011;47544;52.484;4.658;2023-02-27T00:47:43;11.35;;;3.50;;
61638;SDS011;47544;52.484;4.658;2023-02-27T00:47:54;11.27;;;3.65;;
61638;SDS011;47544;52.484;4.658;2023-02-27T00:48:05;10.23;;;3.50;;
61638;SDS011;47544;52.484;4.658;2023-02-27T00:48:16;10.07;;;3.40;;
61638;SDS011;47544;52.484;4.658;2023-02-27T00:48:27;10.38;;;3.25;;
61638;SDS011;47544;52.484;4.658;2023-02-27T00:48:42;10.93;;;3.33;;
61638;SDS011;47544;52.484;4.658;2023-02-27T00:48:53;11.35;;;3.40;;
61638;SDS011;47544;52.484;4.658;2023-02-27T00:49:04;10.60;;;3.33;;
61638;SDS011;47544;52.484;4.658;2023-02-27T00:49:15;10.35;;;3.38;;
61638;SDS011;47544;52.484;4.658;2023-02-27T00:49:26;10.95;;;3.40;;
61638;SDS011;47544;52.484;4.658;2023-02-27T00:49:37;10.38;;;3.38;;
61638;SDS011;47544;52.484;4.658;2023-02-27T00:49:48;9.68;;;3.38;;
61638;SDS011;47544;52.484;4.658;2023-02-27T00:50:00;8.15;;;3.13;;
61638;SDS011;47544;52.484;4.658;2023-02-27T00:50:11;10.32;;;3.20;;
61638;SDS011;47544;52.484;4.658;2023-02-27T00:50:22;10.55;;;3.03;;
61638;SDS011;47544;52.484;4.658;2023-02-27T00:50:33;11.20;;;3.40;;
61638;SDS011;47544;52.484;4.658;2023-02-27T00:50:44;10.23;;;3.40;;
61638;SDS011;47544;52.484;4.658;2023-02-27T00:50:55;10.52;;;3.35;;
61638;SDS011;47544;52.484;4.658;2023-02-27T00:51:06;9.27;;;3.20;;
61638;SDS011;47544;52.484;4.658;2023-02-27T00:51:18;9.65;;;3.25;;
61638;SDS011;47544;52.484;4.658;2023-02-27T00:51:29;10.57;;;3.60;;
61638;SDS011;47544;52.484;4.658;2023-02-27T00:51:40;11.32;;;3.58;;
61638;SDS011;47544;52.484;4.658;2023-02-27T00:51:51;11.00;;;3.72;;
61638;SDS011;47544;52.484;4.658;2023-02-27T00:52:02;10.65;;;3.58;;
61638;SDS011;47544;52.484;4.658;2023-02-27T00:52:13;10.40;;;3.60;;
61638;SDS011;47544;52.484;4.658;2023-02-27T00:52:24;9.70;;;3.58;;
61638;SDS011;47544;52.484;4.658;2023-02-27T00:52:37;8.07;;;3.33;;
61638;SDS011;47544;52.484;4.658;2023-02-27T00:52:48;8.40;;;3.30;;
61638;SDS011;47544;52.484;4.658;2023-02-27T00:52:59;8.98;;;3.50;;
61638;SDS011;47544;52.484;4.658;2023-02-27T00:53:10;8.85;;;3.63;;
61638;SDS011;47544;52.484;4.658;2023-02-27T00:53:21;10.18;;;3.80;;
61638;SDS011;47544;52.484;4.658;2023-02-27T00:53:32;10.27;;;3.72;;
61638;SDS011;47544;52.484;4.658;2023-02-27T00:53:43;10.38;;;3.72;;
61638;SDS011;47544;52.484;4.658;2023-02-27T00:53:54;10.30;;;3.75;;
61638;SDS011;47544;52.484;4.658;2023-02-27T00:54:06;11.07;;;3.70;;
61638;SDS011;47544;52.484;4.658;2023-02-27T00:54:17;11.07;;;3.63;;
61638;SDS011;47544;52.484;4.658;2023-02-27T00:54:28;9.32;;;3.50;;
61638;SDS011;47544;52.484;4.658;2023-02-27T00:54:39;8.07;;;3.40;;
61638;SDS011;47544;52.484;4.658;2023-02-27T00:54:50;8.80;;;3.30;;
61638;SDS011;47544;52.484;4.658;2023-02-27T00:55:01;9.95;;;3.53;;
61638;SDS011;47544;52.484;4.658;2023-02-27T00:55:12;9.23;;;3.40;;
61638;SDS011;47544;52.484;4.658;2023-02-27T00:55:23;8.70;;;3.35;;
61638;SDS011;47544;52.484;4.658;2023-02-27T00:55:34;10.02;;;3.50;;
61638;SDS011;47544;52.484;4.658;2023-02-27T00:55:45;10.80;;;3.63;;
61638;SDS011;47544;52.484;4.658;2023-02-27T00:55:56;11.23;;;3.38;;
61638;SDS011;47544;52.484;4.658;2023-02-27T00:56:09;10.50;;;3.20;;
61638;SDS011;47544;52.484;4.658;2023-02-27T00:56:20;10.18;;;3.28;;
61638;SDS011;47544;52.484;4.658;2023-02-27T00:56:31;9.15;;;3.25;;
61638;SDS011;47544;52.484;4.658;2023-02-27T00:56:44;8.95;;;3.30;;
61638;SDS011;47544;52.484;4.658;2023-02-27T00:56:55;7.50;;;3.00;;
61638;SDS011;47544;52.484;4.658;2023-02-27T00:57:06;7.57;;;3.10;;
61638;SDS011;47544;52.484;4.658;2023-02-27T00:57:17;8.80;;;3.25;;
61638;SDS011;47544;52.484;4.658;2023-02-27T00:57:28;9.40;;;3.50;;
61638;SDS011;47544;52.484;4.658;2023-02-27T00:57:39;9.40;;;3.53;;
61638;SDS011;47544;52.484;4.658;2023-02-27T00:57:50;9.48;;;3.35;;
61638;SDS011;47544;52.484;4.658;2023-02-27T00:58:02;8.93;;;3.08;;
61638;SDS011;47544;52.484;4.658;2023-02-27T00:58:13;8.15;;;2.97;;
61638;SDS011;47544;52.484;4.658;2023-02-27T00:58:24;7.78;;;3.10;;
61638;SDS011;47544;52.484;4.658;2023-02-27T00:58:35;8.93;;;3.45;;
61638;SDS011;47544;52.484;4.658;2023-02-27T00:58:46;10.32;;;3.70;;
61638;SDS011;47544;52.484;4.658;2023-02-27T00:58:56;10.57;;;3.78;;
61638;SDS011;47544;52.484;4.658;2023-02-27T00:59:07;10.77;;;3.75;;
61638;SDS011;47544;52.484;4.658;2023-02-27T00:59:18;8.25;;;3.40;;
61638;SDS011;47544;52.484;4.658;2023-02-27T00:59:31;7.90;;;3.17;;
61638;SDS011;47544;52.484;4.658;2023-02-27T00:59:42;8.73;;;3.10;;
61638;SDS011;47544;52.484;4.658;2023-02-27T00:59:53;8.68;;;2.88;;
61638;SDS011;47544;52.484;4.658;2023-02-27T01:00:04;8.13;;;2.90;;
61638;SDS011;47544;52.484;4.658;2023-02-27T01:00:16;8.98;;;3.22;;
61638;SDS011;47544;52.484;4.658;2023-02-27T01:00:27;12.02;;;3.50;;
61638;SDS011;47544;52.484;4.658;2023-02-27T01:00:40;11.10;;;3.25;;
61638;SDS011;47544;52.484;4.658;2023-02-27T01:00:52;9.45;;;3.05;;
61638;SDS011;47544;52.484;4.658;2023-02-27T01:01:03;9.83;;;3.00;;
61638;SDS011;47544;52.484;4.658;2023-02-27T01:01:14;9.35;;;2.95;;
61638;SDS011;47544;52.484;4.658;2023-02-27T01:01:28;9.50;;;3.03;;
61638;SDS011;47544;52.484;4.658;2023-02-27T01:01:39;9.13;;;3.22;;
61638;SDS011;47544;52.484;4.658;2023-02-27T01:01:50;10.35;;;3.47;;
61638;SDS011;47544;52.484;4.658;2023-02-27T01:02:01;10.50;;;3.33;;
61638;SDS011;47544;52.484;4.658;2023-02-27T01:02:12;10.35;;;3.13;;
61638;SDS011;47544;52.484;4.658;2023-02-27T01:02:24;10.65;;;3.13;;
61638;SDS011;47544;52.484;4.658;2023-02-27T01:02:35;10.73;;;3.35;;
61638;SDS011;47544;52.484;4.658;2023-02-27T01:02:46;11.10;;;3.40;;
61638;SDS011;47544;52.484;4.658;2023-02-27T01:02:57;10.57;;;3.40;;
61638;SDS011;47544;52.484;4.658;2023-02-27T01:03:08;9.98;;;3.35;;
61638;SDS011;47544;52.484;4.658;2023-02-27T01:03:19;8.77;;;3.17;;
61638;SDS011;47544;52.484;4.658;2023-02-27T01:03:31;8.43;;;3.10;;
61638;SDS011;47544;52.484;4.658;2023-02-27T01:03:42;10.05;;;3.10;;
61638;SDS011;47544;52.484;4.658;2023-02-27T01:03:53;10.85;;;3.30;;
61638;SDS011;47544;52.484;4.658;2023-02-27T01:04:04;10.60;;;3.30;;
61638;SDS011;47544;52.484;4.658;2023-02-27T01:04:15;9.45;;;3.10;;
61638;SDS011;47544;52.484;4.658;2023-02-27T01:04:26;9.10;;;3.00;;
61638;SDS011;47544;52.484;4.658;2023-02-27T01:04:37;11.45;;;3.08;;
61638;SDS011;47544;52.484;4.658;2023-02-27T01:04:48;12.18;;;3.33;;
61638;SDS011;47544;52.484;4.658;2023-02-27T01:04:59;12.07;;;3.33;;
61638;SDS011;47544;52.484;4.658;2023-02-27T01:05:11;10.13;;;3.35;;
61638;SDS011;47544;52.484;4.658;2023-02-27T01:05:22;10.68;;;3.22;;
61638;SDS011;47544;52.484;4.658;2023-02-27T01:05:33;11.10;;;3.53;;
61638;SDS011;47544;52.484;4.658;2023-02-27T01:05:43;10.65;;;3.55;;
61638;SDS011;47544;52.484;4.658;2023-02-27T01:05:54;9.50;;;3.40;;
61638;SDS011;47544;52.484;4.658;2023-02-27T01:06:05;8.97;;;3.13;;
61638;SDS011;47544;52.484;4.658;2023-02-27T01:06:17;9.95;;;3.17;;
61638;SDS011;47544;52.484;4.658;2023-02-27T01:06:29;10.50;;;3.40;;
61638;SDS011;47544;52.484;4.658;2023-02-27T01:06:40;10.57;;;3.37;;
61638;SDS011;47544;52.484;4.658;2023-02-27T01:06:51;8.93;;;3.50;;
61638;SDS011;47544;52.484;4.658;2023-02-27T01:07:04;8.43;;;3.40;;
61638;SDS011;47544;52.484;4.658;2023-02-27T01:07:15;8.90;;;3.63;;
61638;SDS011;47544;52.484;4.658;2023-02-27T01:07:28;9.85;;;3.45;;
61638;SDS011;47544;52.484;4.658;2023-02-27T01:07:39;9.82;;;3.50;;
61638;SDS011;47544;52.484;4.658;2023-02-27T01:07:50;8.77;;;3.17;;
61638;SDS011;47544;52.484;4.658;2023-02-27T01:08:02;8.05;;;3.13;;
61638;SDS011;47544;52.484;4.658;2023-02-27T01:08:13;8.20;;;3.20;;